createdAt,value
2022-12-31T00:02:56.835Z,2.53
2022-12-31T00:06:00.353Z,2.38
2022-12-31T00:09:05.247Z,2.22
2022-12-31T00:12:09.148Z,1.77
2022-12-31T00:15:12.014Z,1.30
2022-12-31T00:18:14.027Z,0.80
2022-12-31T00:21:18.129Z,0.70
2022-12-31T00:24:20.464Z,0.50
2022-12-31T00:27:26.903Z,0.47
2022-12-31T00:30:28.738Z,0.60
2022-12-31T00:33:31.065Z,0.40
2022-12-31T00:36:34.674Z,0.68
2022-12-31T00:39:38.179Z,0.80
2022-12-31T00:42:42.164Z,0.50
2022-12-31T00:45:44.029Z,0.80
2022-12-31T00:48:47.032Z,1.48
2022-12-31T00:51:49.061Z,1.92
2022-12-31T00:54:53.952Z,1.63
2022-12-31T00:57:57.198Z,1.50
2022-12-31T01:00:59.561Z,1.13
2022-12-31T01:04:04.933Z,2.42
2022-12-31T01:07:08.272Z,3.15
2022-12-31T01:10:10.795Z,3.53
2022-12-31T01:13:14.311Z,4.25
2022-12-31T01:16:19.713Z,4.60
2022-12-31T01:19:24.085Z,5.20
2022-12-31T01:22:31.102Z,5.18
2022-12-31T01:25:35.100Z,5.28
2022-12-31T01:28:49.921Z,5.20
2022-12-31T01:31:51.879Z,4.72
2022-12-31T01:34:56.308Z,5.47
2022-12-31T01:37:58.103Z,5.45
2022-12-31T01:41:03.402Z,6.10
2022-12-31T01:44:38.437Z,5.25
2022-12-31T01:47:45.450Z,5.75
2022-12-31T01:50:48.582Z,5.78
2022-12-31T01:53:51.714Z,5.85
2022-12-31T01:56:55.304Z,5.85
2022-12-31T02:00:00.602Z,5.10
2022-12-31T02:03:07.255Z,4.68
2022-12-31T02:06:14.891Z,5.15
2022-12-31T02:09:18.105Z,6.22
2022-12-31T02:12:24.087Z,5.68
2022-12-31T02:15:33.828Z,6.22
2022-12-31T02:18:48.842Z,6.03
2022-12-31T02:22:01.229Z,6.90
2022-12-31T02:25:30.528Z,8.98
2022-12-31T02:28:53.824Z,6.13
2022-12-31T02:32:00.998Z,8.02
2022-12-31T02:35:10.256Z,8.30
2022-12-31T02:41:20.338Z,1.90
2022-12-31T02:44:24.137Z,0.93
2022-12-31T02:47:43.683Z,0.70
2022-12-31T02:50:58.670Z,0.70
2022-12-31T02:54:17.429Z,0.73
2022-12-31T02:57:34.212Z,0.80
2022-12-31T03:00:44.033Z,0.60
2022-12-31T03:03:47.353Z,0.50
2022-12-31T03:06:51.806Z,0.40
2022-12-31T03:09:54.977Z,0.60
2022-12-31T03:12:57.102Z,0.38
2022-12-31T03:16:02.049Z,0.40
2022-12-31T03:19:05.506Z,0.45
2022-12-31T03:22:12.706Z,0.38
2022-12-31T03:25:17.123Z,0.50
2022-12-31T03:28:21.937Z,0.40
2022-12-31T03:31:26.110Z,0.20
2022-12-31T03:34:29.380Z,0.40
2022-12-31T03:37:31.716Z,0.30
2022-12-31T03:40:38.401Z,0.30
2022-12-31T03:43:42.224Z,0.50
2022-12-31T03:46:44.010Z,0.52
2022-12-31T03:49:47.237Z,0.50
2022-12-31T03:52:50.484Z,0.30
2022-12-31T03:55:52.848Z,0.40
2022-12-31T03:58:56.096Z,0.40
2022-12-31T04:01:58.087Z,0.40
2022-12-31T04:05:06.598Z,0.30
2022-12-31T04:08:08.609Z,0.50
2022-12-31T04:11:14.678Z,0.60
2022-12-31T04:14:20.803Z,0.40
2022-12-31T04:17:22.947Z,0.35
2022-12-31T04:20:26.244Z,0.40
2022-12-31T04:23:29.393Z,0.40
2022-12-31T04:26:33.459Z,0.60
2022-12-31T04:29:35.975Z,0.38
2022-12-31T04:32:37.835Z,0.63
2022-12-31T04:35:43.028Z,0.50
2022-12-31T04:38:45.071Z,0.50
2022-12-31T04:41:49.356Z,0.32
2022-12-31T04:44:51.887Z,0.40
2022-12-31T04:47:53.851Z,0.30
2022-12-31T04:50:57.769Z,0.40
2022-12-31T04:54:00.225Z,0.60
2022-12-31T04:57:02.147Z,0.38
2022-12-31T05:00:05.068Z,0.60
2022-12-31T05:03:07.004Z,0.57
2022-12-31T05:06:17.230Z,0.70
2022-12-31T05:09:19.154Z,0.50
2022-12-31T05:12:21.062Z,0.43
2022-12-31T05:15:24.623Z,0.40
2022-12-31T05:18:26.851Z,0.30
2022-12-31T05:21:30.088Z,0.35
2022-12-31T05:24:33.071Z,0.30
2022-12-31T05:27:35.239Z,0.30
2022-12-31T05:30:39.445Z,0.30
2022-12-31T05:33:41.326Z,0.40
2022-12-31T05:36:47.504Z,0.40
2022-12-31T05:39:49.354Z,0.30
2022-12-31T05:42:51.180Z,0.40
2022-12-31T05:45:57.095Z,0.40
2022-12-31T05:48:58.972Z,0.35
2022-12-31T05:52:02.997Z,0.30
2022-12-31T05:55:08.789Z,0.40
2022-12-31T05:58:10.661Z,0.40
2022-12-31T06:01:13.075Z,0.35
2022-12-31T06:04:15.171Z,0.40
2022-12-31T06:07:18.575Z,0.28
2022-12-31T06:10:22.417Z,0.43
2022-12-31T06:13:24.350Z,0.50
2022-12-31T06:16:27.770Z,0.30
2022-12-31T06:19:29.688Z,0.45
2022-12-31T06:22:32.940Z,0.30
2022-12-31T06:25:37.538Z,0.80
2022-12-31T06:28:39.487Z,0.50
2022-12-31T06:31:42.949Z,0.70
2022-12-31T06:34:44.987Z,0.40
2022-12-31T06:37:54.811Z,0.47
2022-12-31T06:40:56.853Z,0.60
2022-12-31T06:44:02.175Z,0.50
2022-12-31T06:47:04.248Z,0.50
2022-12-31T06:50:07.355Z,0.70
2022-12-31T06:53:15.494Z,0.50
2022-12-31T06:56:20.173Z,0.80
2022-12-31T06:59:25.824Z,0.40
2022-12-31T07:02:48.458Z,0.60
2022-12-31T07:05:54.318Z,0.50
2022-12-31T07:09:09.058Z,1.10
2022-12-31T07:12:20.470Z,1.10
2022-12-31T07:15:50.234Z,1.17
2022-12-31T07:18:58.559Z,0.60
2022-12-31T07:22:03.129Z,0.95
2022-12-31T07:25:13.726Z,0.95
2022-12-31T07:28:25.264Z,1.00
2022-12-31T07:31:39.885Z,1.15
2022-12-31T07:34:51.217Z,0.55
2022-12-31T07:38:02.705Z,1.02
2022-12-31T07:41:17.216Z,1.00
2022-12-31T07:44:34.670Z,1.15
2022-12-31T07:47:37.260Z,1.05
2022-12-31T07:50:39.684Z,1.10
2022-12-31T07:53:43.086Z,1.70
2022-12-31T07:56:47.472Z,2.08
2022-12-31T08:00:03.866Z,1.42
2022-12-31T08:03:18.888Z,1.83
2022-12-31T08:06:35.175Z,1.65
2022-12-31T08:09:46.874Z,1.80
2022-12-31T08:12:53.258Z,3.40
2022-12-31T08:15:58.255Z,2.65
2022-12-31T08:19:00.985Z,2.17
2022-12-31T08:22:14.917Z,3.13
2022-12-31T08:25:25.893Z,3.45
2022-12-31T08:28:56.968Z,2.65
2022-12-31T08:32:12.138Z,3.92
2022-12-31T08:35:27.264Z,3.95
2022-12-31T08:38:35.171Z,3.38
2022-12-31T08:41:43.052Z,3.67
2022-12-31T08:44:54.618Z,3.50
2022-12-31T08:48:04.259Z,6.07
2022-12-31T08:51:14.341Z,6.80
2022-12-31T08:54:16.956Z,5.53
2022-12-31T08:57:28.297Z,6.05
2022-12-31T09:00:32.547Z,5.35
2022-12-31T09:03:53.322Z,5.80
2022-12-31T09:06:59.696Z,4.50
2022-12-31T09:10:12.091Z,4.78
2022-12-31T09:13:25.136Z,4.30
2022-12-31T09:16:29.193Z,4.55
2022-12-31T09:19:32.449Z,4.00
2022-12-31T09:22:36.211Z,4.45
2022-12-31T09:25:44.130Z,4.63
2022-12-31T09:28:54.792Z,4.53
2022-12-31T09:32:05.952Z,5.30
2022-12-31T09:35:16.882Z,4.53
2022-12-31T09:38:22.781Z,4.22
2022-12-31T09:42:14.910Z,3.20
2022-12-31T09:45:52.329Z,4.40
2022-12-31T09:49:28.181Z,4.85
2022-12-31T09:52:47.649Z,4.68
2022-12-31T09:55:57.668Z,5.15
2022-12-31T09:59:05.603Z,5.80
2022-12-31T10:02:22.922Z,6.03
2022-12-31T10:05:50.486Z,5.22
2022-12-31T10:09:10.458Z,5.13
2022-12-31T10:15:38.885Z,4.05
2022-12-31T10:18:58.356Z,4.55
2022-12-31T10:22:15.053Z,4.32
2022-12-31T10:25:38.915Z,4.15
2022-12-31T10:28:56.526Z,3.88
2022-12-31T10:32:17.489Z,4.57
2022-12-31T10:35:35.669Z,3.92
2022-12-31T10:38:47.213Z,3.20
2022-12-31T10:42:25.190Z,3.45
2022-12-31T10:46:01.960Z,3.22
2022-12-31T10:49:30.697Z,3.47
2022-12-31T10:53:19.776Z,3.42
2022-12-31T10:56:56.224Z,3.70
2022-12-31T11:00:18.528Z,3.60
2022-12-31T11:03:55.611Z,3.60
2022-12-31T11:07:27.489Z,3.50
2022-12-31T11:11:03.528Z,3.45
2022-12-31T11:14:33.917Z,3.30
2022-12-31T11:17:45.148Z,4.03
2022-12-31T11:21:28.498Z,3.35
2022-12-31T11:24:41.862Z,3.90
2022-12-31T11:27:56.882Z,3.83
2022-12-31T11:31:12.355Z,3.60
2022-12-31T11:34:49.275Z,4.10
2022-12-31T11:37:54.644Z,4.30
2022-12-31T11:41:05.433Z,4.00
2022-12-31T11:44:20.697Z,4.20
2022-12-31T11:48:29.232Z,2.65
2022-12-31T11:52:00.693Z,3.08
2022-12-31T11:55:26.743Z,2.42
2022-12-31T11:58:29.926Z,2.15
2022-12-31T12:01:36.472Z,2.20
2022-12-31T12:04:38.411Z,1.10
2022-12-31T12:07:44.305Z,0.70
2022-12-31T12:10:48.728Z,1.35
2022-12-31T12:13:50.636Z,1.80
2022-12-31T12:17:02.432Z,2.08
2022-12-31T12:20:15.630Z,1.30
2022-12-31T12:23:24.596Z,2.33
2022-12-31T12:26:34.162Z,4.00
2022-12-31T12:29:36.274Z,4.13
2022-12-31T12:32:39.136Z,4.15
2022-12-31T12:35:41.071Z,2.50
2022-12-31T12:38:46.437Z,3.22
2022-12-31T12:41:59.969Z,3.47
2022-12-31T12:45:05.010Z,3.20
2022-12-31T12:48:17.622Z,3.40
2022-12-31T12:51:33.321Z,3.40
2022-12-31T12:54:55.061Z,2.78
2022-12-31T12:58:06.679Z,3.00
2022-12-31T13:01:21.748Z,3.15
2022-12-31T13:04:38.533Z,3.15
2022-12-31T13:07:56.670Z,3.03
2022-12-31T13:11:12.048Z,3.10
2022-12-31T13:14:25.827Z,3.03
2022-12-31T13:17:46.050Z,2.70
2022-12-31T13:20:59.396Z,2.60
2022-12-31T13:24:07.713Z,3.08
2022-12-31T13:30:21.926Z,2.83
2022-12-31T13:33:29.480Z,2.78
2022-12-31T13:36:38.471Z,2.30
2022-12-31T13:39:44.156Z,2.22
2022-12-31T13:42:53.788Z,2.10
2022-12-31T13:46:08.251Z,2.50
2022-12-31T13:49:17.434Z,2.85
2022-12-31T13:52:28.758Z,3.00
2022-12-31T13:55:33.798Z,2.83
2022-12-31T13:58:43.524Z,2.70
2022-12-31T14:01:53.054Z,2.65
2022-12-31T14:05:00.533Z,2.67
2022-12-31T14:08:05.263Z,2.97
2022-12-31T14:11:18.665Z,2.83
2022-12-31T14:14:31.236Z,2.42
2022-12-31T14:17:42.581Z,2.78
2022-12-31T14:20:49.001Z,2.65
2022-12-31T14:23:59.636Z,2.50
2022-12-31T14:27:05.537Z,2.55
2022-12-31T14:30:16.063Z,2.30
2022-12-31T14:33:32.287Z,2.20
2022-12-31T14:36:46.299Z,2.42
2022-12-31T14:39:54.970Z,2.10
2022-12-31T14:43:10.241Z,1.63
2022-12-31T14:46:26.035Z,2.10
2022-12-31T14:49:38.660Z,2.95
2022-12-31T14:52:52.110Z,4.80
2022-12-31T14:56:01.559Z,4.88
2022-12-31T14:59:03.528Z,3.20
2022-12-31T15:02:30.120Z,3.78
2022-12-31T15:05:34.599Z,3.45
2022-12-31T15:08:47.322Z,2.55
2022-12-31T15:12:14.429Z,2.30
2022-12-31T15:15:55.607Z,2.58
2022-12-31T15:19:29.748Z,3.45
2022-12-31T15:22:39.846Z,5.75
2022-12-31T15:25:47.849Z,7.47
2022-12-31T15:28:58.563Z,8.15
2022-12-31T15:32:04.084Z,5.70
2022-12-31T15:38:36.527Z,5.35
2022-12-31T15:42:03.122Z,7.63
2022-12-31T15:45:08.049Z,7.55
2022-12-31T15:48:16.727Z,7.40
2022-12-31T15:51:22.592Z,7.80
2022-12-31T15:54:34.779Z,7.95
2022-12-31T15:57:40.214Z,8.15
2022-12-31T16:01:01.462Z,9.73
2022-12-31T16:04:05.807Z,8.77
2022-12-31T16:07:09.561Z,7.05
2022-12-31T16:10:19.097Z,4.18
2022-12-31T16:13:24.219Z,3.10
2022-12-31T16:16:27.836Z,3.35
2022-12-31T16:19:35.690Z,4.20
2022-12-31T16:22:39.745Z,4.20
2022-12-31T16:25:45.347Z,3.72
2022-12-31T16:28:48.283Z,3.53
2022-12-31T16:31:52.282Z,3.60
2022-12-31T16:34:54.129Z,6.90
2022-12-31T16:38:13.969Z,6.78
2022-12-31T16:44:27.635Z,7.40
2022-12-31T16:47:34.095Z,11.23
2022-12-31T16:50:36.561Z,7.80
2022-12-31T16:53:40.661Z,6.90
2022-12-31T16:56:44.424Z,3.60
2022-12-31T16:59:49.389Z,2.65
2022-12-31T17:03:01.135Z,4.53
2022-12-31T17:06:14.076Z,9.45
2022-12-31T17:09:17.687Z,6.72
2022-12-31T17:12:20.968Z,16.15
2022-12-31T17:15:25.703Z,12.93
2022-12-31T17:18:35.613Z,11.18
2022-12-31T17:21:37.469Z,11.48
2022-12-31T17:24:39.874Z,8.27
2022-12-31T17:27:52.862Z,5.00
2022-12-31T17:31:00.009Z,6.75
2022-12-31T17:34:20.179Z,20.73
2022-12-31T17:37:27.175Z,17.35
2022-12-31T17:40:50.823Z,17.20
2022-12-31T17:43:57.825Z,15.52
2022-12-31T17:46:59.685Z,36.53
2022-12-31T17:50:08.804Z,27.70
2022-12-31T17:53:12.736Z,17.33
2022-12-31T17:56:15.449Z,18.08
2022-12-31T17:59:21.820Z,19.60
2022-12-31T18:02:23.734Z,16.02
2022-12-31T18:05:26.046Z,21.23
2022-12-31T18:08:27.922Z,17.73
2022-12-31T18:11:29.853Z,21.75
2022-12-31T18:14:33.584Z,25.83
2022-12-31T18:17:35.472Z,15.82
2022-12-31T18:20:37.368Z,34.58
2022-12-31T18:23:42.248Z,47.63
2022-12-31T18:26:44.083Z,50.78
2022-12-31T18:29:47.291Z,38.53
2022-12-31T18:32:49.163Z,23.80
2022-12-31T18:36:09.613Z,22.60
2022-12-31T18:39:12.243Z,13.68
2022-12-31T18:42:16.135Z,18.75
2022-12-31T18:45:21.098Z,18.27
2022-12-31T18:48:23.161Z,18.95
2022-12-31T18:51:31.320Z,36.05
2022-12-31T18:54:33.739Z,50.97
2022-12-31T18:57:35.552Z,47.67
2022-12-31T19:00:38.766Z,38.95
2022-12-31T19:03:40.551Z,15.02
2022-12-31T19:06:42.679Z,21.80
2022-12-31T19:09:45.977Z,35.92
2022-12-31T19:12:48.810Z,24.98
2022-12-31T19:15:53.296Z,30.08
2022-12-31T19:18:55.166Z,21.75
2022-12-31T19:21:56.977Z,17.38
2022-12-31T19:24:58.803Z,21.40
2022-12-31T19:28:00.999Z,18.40
2022-12-31T19:31:04.275Z,10.73
2022-12-31T19:34:06.097Z,10.23
2022-12-31T19:37:11.974Z,15.07
2022-12-31T19:40:16.488Z,13.98
2022-12-31T19:43:20.635Z,22.17
2022-12-31T19:46:23.846Z,9.93
2022-12-31T19:49:25.764Z,17.73
2022-12-31T19:52:27.571Z,22.42
2022-12-31T19:55:29.400Z,17.75
2022-12-31T19:58:31.356Z,13.63
2022-12-31T20:01:34.891Z,12.05
2022-12-31T20:04:36.783Z,8.23
2022-12-31T20:07:38.638Z,9.05
2022-12-31T20:10:40.879Z,11.02
2022-12-31T20:13:43.425Z,6.93
2022-12-31T20:16:46.687Z,10.80
2022-12-31T20:19:48.625Z,9.07
2022-12-31T20:22:50.460Z,10.88
2022-12-31T20:25:58.177Z,20.67
2022-12-31T20:28:59.984Z,13.32
2022-12-31T20:32:03.560Z,15.77
2022-12-31T20:35:06.424Z,14.98
2022-12-31T20:38:08.235Z,13.73
2022-12-31T20:41:11.644Z,13.45
2022-12-31T20:44:13.578Z,15.02
2022-12-31T20:47:16.737Z,16.00
2022-12-31T20:50:18.834Z,9.95
2022-12-31T20:53:20.588Z,15.27
2022-12-31T20:56:23.326Z,18.08
2022-12-31T20:59:25.137Z,12.45
2022-12-31T21:02:40.798Z,7.70
2022-12-31T21:05:47.612Z,7.82
2022-12-31T21:08:49.651Z,11.75
2022-12-31T21:11:51.483Z,8.43
2022-12-31T21:14:53.271Z,6.43
2022-12-31T21:17:56.498Z,7.38
2022-12-31T21:20:58.316Z,7.85
2022-12-31T21:24:00.165Z,11.55
2022-12-31T21:27:02.003Z,15.85
2022-12-31T21:30:20.152Z,16.45
2022-12-31T21:33:23.898Z,21.50
2022-12-31T21:36:25.779Z,15.55
2022-12-31T21:39:27.561Z,10.90
2022-12-31T21:42:29.363Z,15.88
2022-12-31T21:45:31.253Z,20.33
2022-12-31T21:48:34.444Z,9.52
2022-12-31T21:51:36.279Z,23.63
2022-12-31T21:54:38.068Z,24.58
2022-12-31T21:58:15.163Z,22.08
2022-12-31T22:01:03.596Z,18.73
2022-12-31T22:04:12.924Z,10.43
2022-12-31T22:07:24.134Z,7.18
2022-12-31T22:10:25.983Z,10.52
2022-12-31T22:13:27.871Z,8.30
2022-12-31T22:16:29.671Z,14.20
2022-12-31T22:19:39.270Z,11.82
2022-12-31T22:22:54.739Z,9.10
2022-12-31T22:25:56.721Z,4.50
2022-12-31T22:28:58.543Z,7.00
2022-12-31T22:32:01.361Z,13.98
2022-12-31T22:35:05.560Z,6.13
2022-12-31T22:38:11.882Z,7.95
2022-12-31T22:41:15.414Z,7.18
2022-12-31T22:44:17.235Z,6.53
2022-12-31T22:47:19.069Z,9.18
2022-12-31T22:50:22.256Z,11.82
2022-12-31T22:53:24.150Z,6.97
2022-12-31T22:56:25.947Z,3.67
2022-12-31T22:59:27.767Z,5.32
2022-12-31T23:02:30.550Z,10.73
2022-12-31T23:05:34.393Z,16.15
2022-12-31T23:08:36.755Z,42.08
2022-12-31T23:11:39.355Z,21.42
2022-12-31T23:14:41.188Z,15.27
2022-12-31T23:17:42.987Z,19.42
2022-12-31T23:20:46.243Z,46.30
2022-12-31T23:23:52.843Z,24.67
2022-12-31T23:26:55.958Z,16.25
2022-12-31T23:29:57.767Z,12.57
2022-12-31T23:32:59.904Z,11.10
2022-12-31T23:36:04.283Z,6.78
2022-12-31T23:39:06.113Z,6.47
2022-12-31T23:42:08.177Z,7.35
2022-12-31T23:45:10.658Z,7.05
2022-12-31T23:48:12.425Z,6.63
2022-12-31T23:51:15.624Z,8.45
2022-12-31T23:54:17.521Z,8.10
2022-12-31T23:57:19.341Z,8.95
